South Worthington, Massachusetts
Current Conditions -  °F | °C
As of 9:53 PM on Friday 24 Oct 2014 (Local Time) from KBAF Reporting Station
Clear Clear  
Wind Chill: 51°   Ceiling: Unl
Heat Index: 51°   Visibility: 10mi
Dew Point: 42°   Wind: 13mph
Humidity: 71%   Direction: 350°N
Pressure: 29.78"   Gusts: NA
Location:  42.3047°N, 72.879°W
Report Text: KBAF 250153Z AUTO 35011KT 10SM CLR 11/06 A2978 RMK AO2 SLP085 T01060056
Loading
Personal Weather Stations






























Interactive Weather Map
Tropical Storm Tracking
New forecast layout! Learn more

10-Day Weather Forecast

Advertisements
Track Severe Weather on mobile